Time;durP1;ratioP1;P1;durP2;ratioP2;P2;SDS_P1;SDS_P2;PMS_P1;PMS_P2;Temp;Humidity;BMP_temperature;BMP_pressure;BME280_temperature;BME280_humidity;BME280_pressure;Samples;Min_cycle;Max_cycle;Signal;HPM_P1;HPM_P2
2021/11/18 00:01:12;;;;;;;5.05;2.88;;;18.00;58.40;;;;;;5007020;28;20462;-64
2021/11/18 00:03:38;;;;;;;3.92;2.58;;;18.00;58.40;;;;;;5020447;28;20044;-61
2021/11/18 00:06:03;;;;;;;3.72;2.15;;;18.10;58.40;;;;;;5018591;28;20434;-64
2021/11/18 00:08:29;;;;;;;4.57;2.78;;;18.00;58.40;;;;;;5011323;28;20080;-63
2021/11/18 00:10:58;;;;;;;4.53;2.80;;;18.00;58.30;;;;;;5011738;28;20110;-64
2021/11/18 00:13:27;;;;;;;6.03;2.90;;;18.00;58.30;;;;;;5019986;28;20026;-64
2021/11/18 00:15:52;;;;;;;4.03;2.30;;;18.10;58.30;;;;;;4989731;28;20096;-63
2021/11/18 00:18:19;;;;;;;3.83;2.28;;;18.10;58.30;;;;;;5014309;28;20033;-64
2021/11/18 00:20:52;;;;;;;4.78;2.45;;;18.00;58.30;;;;;;5027011;28;20169;-64
2021/11/18 00:23:18;;;;;;;4.15;2.40;;;18.10;58.30;;;;;;5010887;28;20396;-64
2021/11/18 00:25:44;;;;;;;4.75;2.05;;;18.10;58.20;;;;;;5007012;28;20092;-63
2021/11/18 00:28:09;;;;;;;4.63;2.60;;;18.10;58.20;;;;;;5007396;28;20034;-63
2021/11/18 00:30:35;;;;;;;4.55;2.15;;;18.00;58.10;;;;;;5013079;28;20072;-63
2021/11/18 00:33:00;;;;;;;4.38;2.60;;;18.00;58.10;;;;;;5012788;28;20026;-64
2021/11/18 00:35:27;;;;;;;4.28;2.35;;;18.10;58.20;;;;;;4985408;28;20515;-64
2021/11/18 00:37:53;;;;;;;5.63;3.00;;;18.00;58.10;;;;;;5006972;28;20330;-65
2021/11/18 00:40:21;;;;;;;4.97;2.42;;;18.00;58.10;;;;;;5013398;28;20026;-64
2021/11/18 00:42:46;;;;;;;5.40;2.40;;;18.00;58.10;;;;;;4993178;28;20040;-64
2021/11/18 00:45:12;;;;;;;3.80;2.00;;;18.10;58.10;;;;;;5010436;28;20030;-64
2021/11/18 00:47:38;;;;;;;3.20;2.15;;;18.10;58.00;;;;;;5019358;28;20038;-64
2021/11/18 00:50:04;;;;;;;2.90;1.65;;;18.10;58.00;;;;;;5020568;28;20036;-62
2021/11/18 00:52:30;;;;;;;5.22;2.22;;;18.10;58.00;;;;;;5024434;28;20029;-62
2021/11/18 00:54:56;;;;;;;5.22;2.08;;;18.10;58.00;;;;;;5020581;28;20100;-62
2021/11/18 00:57:21;;;;;;;4.85;2.17;;;18.10;58.00;;;;;;5008100;28;20037;-62
2021/11/18 00:59:47;;;;;;;3.55;2.40;;;18.10;58.00;;;;;;5021095;28;20022;-63
2021/11/18 01:02:13;;;;;;;2.60;2.08;;;18.00;57.90;;;;;;5005933;28;20026;-62
2021/11/18 01:04:39;;;;;;;2.78;2.10;;;18.00;57.90;;;;;;5007674;28;20084;-62
2021/11/18 01:07:04;;;;;;;2.92;2.10;;;18.10;57.90;;;;;;5016601;28;20107;-62
2021/11/18 01:09:30;;;;;;;3.30;1.92;;;18.00;57.90;;;;;;5016359;28;20025;-63
2021/11/18 01:11:56;;;;;;;3.22;2.10;;;18.10;58.00;;;;;;5016455;28;20028;-62
2021/11/18 01:14:21;;;;;;;3.22;1.88;;;18.00;58.00;;;;;;5014235;28;20037;-62
2021/11/18 01:16:47;;;;;;;2.95;1.55;;;17.90;58.00;;;;;;5014952;28;20018;-62
2021/11/18 01:19:13;;;;;;;3.33;1.73;;;17.90;58.10;;;;;;5005221;28;20029;-63
2021/11/18 01:21:39;;;;;;;1.92;1.73;;;17.90;58.20;;;;;;5009227;28;20070;-63
2021/11/18 01:24:05;;;;;;;3.20;1.77;;;17.90;58.30;;;;;;5009557;28;20107;-62
2021/11/18 01:26:30;;;;;;;3.40;2.20;;;17.90;58.30;;;;;;5017939;28;20049;-62
2021/11/18 01:28:59;;;;;;;2.45;1.70;;;17.80;58.20;;;;;;5018002;28;20559;-62
2021/11/18 01:31:25;;;;;;;3.08;1.80;;;17.80;58.30;;;;;;5017018;28;20025;-63
2021/11/18 01:33:50;;;;;;;3.42;1.85;;;17.80;58.30;;;;;;5006486;28;20034;-62
2021/11/18 01:36:16;;;;;;;1.95;1.70;;;17.80;58.30;;;;;;5001128;28;20034;-63
2021/11/18 01:38:41;;;;;;;3.35;1.45;;;17.80;58.30;;;;;;5024926;28;20030;-63
2021/11/18 01:41:10;;;;;;;4.35;1.90;;;17.80;58.40;;;;;;5008116;28;20084;-63
2021/11/18 01:43:41;;;;;;;1.80;1.40;;;17.80;58.40;;;;;;5025955;28;20053;-62
2021/11/18 01:46:10;;;;;;;3.55;1.70;;;17.80;58.40;;;;;;5012818;28;20504;-64
2021/11/18 01:48:35;;;;;;;2.78;1.70;;;17.70;58.30;;;;;;5011790;28;20038;-59
2021/11/18 01:51:01;;;;;;;2.28;1.58;;;17.70;59.00;;;;;;5024871;28;20084;-62
2021/11/18 01:53:35;;;;;;;1.80;1.30;;;17.70;58.30;;;;;;5000143;28;20041;-62
2021/11/18 01:56:05;;;;;;;5.45;2.05;;;17.70;58.40;;;;;;5015682;28;20500;-62
2021/11/18 01:58:30;;;;;;;3.22;1.60;;;17.70;58.40;;;;;;5014055;28;20130;-63
2021/11/18 02:00:56;;;;;;;2.45;1.60;;;17.70;58.40;;;;;;5010673;28;20508;-62
2021/11/18 02:03:22;;;;;;;2.40;1.40;;;17.70;58.40;;;;;;5011374;28;20041;-63
2021/11/18 02:06:00;;;;;;;3.50;1.60;;;17.70;59.10;;;;;;5023515;28;20048;-62
2021/11/18 02:08:26;;;;;;;3.08;1.50;;;17.60;58.40;;;;;;4980197;28;20080;-63
2021/11/18 02:10:54;;;;;;;1.95;1.52;;;17.60;58.40;;;;;;5012817;28;20029;-63
2021/11/18 02:13:20;;;;;;;1.88;1.45;;;17.60;59.00;;;;;;5012885;28;20029;-63
2021/11/18 02:15:48;;;;;;;2.67;1.73;;;17.60;58.40;;;;;;5013071;28;20033;-63
2021/11/18 02:18:22;;;;;;;1.60;1.30;;;17.60;58.40;;;;;;5002974;28;20539;-62
2021/11/18 02:20:48;;;;;;;2.97;1.48;;;17.60;58.40;;;;;;4998082;28;21385;-63
2021/11/18 02:23:16;;;;;;;1.50;1.30;;;17.70;58.40;;;;;;5013329;28;20042;-63
2021/11/18 02:25:42;;;;;;;2.38;1.60;;;17.80;58.40;;;;;;5008282;28;20029;-63
2021/11/18 02:28:07;;;;;;;2.38;1.73;;;17.90;58.10;;;;;;5020454;28;20527;-63
2021/11/18 02:30:35;;;;;;;3.33;1.40;;;18.00;57.80;;;;;;5016715;28;20026;-62
2021/11/18 02:33:00;;;;;;;3.35;1.65;;;18.00;57.60;;;;;;5017455;28;20029;-64
2021/11/18 02:35:28;;;;;;;1.33;1.23;;;18.10;57.60;;;;;;4995249;28;20558;-63
2021/11/18 02:37:54;;;;;;;2.53;1.58;;;18.10;57.60;;;;;;5021393;28;20087;-62
2021/11/18 02:40:20;;;;;;;1.98;1.55;;;18.10;57.60;;;;;;5001261;28;20423;-63
2021/11/18 02:42:46;;;;;;;2.90;1.67;;;18.10;57.60;;;;;;5015130;28;20038;-63
2021/11/18 02:45:14;;;;;;;2.38;1.60;;;18.20;57.70;;;;;;5007560;28;20034;-63
2021/11/18 02:47:40;;;;;;;3.40;1.20;;;18.20;57.70;;;;;;5012538;28;20495;-63
2021/11/18 02:50:07;;;;;;;2.30;1.27;;;18.20;57.70;;;;;;5020481;28;20037;-62
2021/11/18 02:52:33;;;;;;;1.42;1.30;;;18.20;57.70;;;;;;5012446;28;20026;-63
2021/11/18 02:55:00;;;;;;;1.35;0.90;;;18.20;57.70;;;;;;5025870;28;20049;-62
2021/11/18 02:57:26;;;;;;;3.05;1.63;;;18.30;57.70;;;;;;5018950;28;20480;-63
2021/11/18 02:59:51;;;;;;;1.42;1.30;;;18.30;57.70;;;;;;4990437;28;20030;-63
2021/11/18 03:02:17;;;;;;;1.40;1.17;;;18.30;57.60;;;;;;5025515;28;20021;-62
2021/11/18 03:04:42;;;;;;;1.77;1.40;;;18.30;57.60;;;;;;5008113;28;20076;-63
2021/11/18 03:07:08;;;;;;;1.77;1.35;;;18.30;57.60;;;;;;5018333;28;20025;-63
2021/11/18 03:09:34;;;;;;;1.98;1.10;;;18.30;57.70;;;;;;5020662;28;20026;-63
2021/11/18 03:11:59;;;;;;;1.55;1.15;;;18.30;57.70;;;;;;5015603;28;20132;-62
2021/11/18 03:14:26;;;;;;;1.42;1.10;;;18.30;57.70;;;;;;5024058;28;20065;-63
2021/11/18 03:16:51;;;;;;;1.50;1.25;;;18.30;57.70;;;;;;5001738;28;20034;-62
2021/11/18 03:19:17;;;;;;;1.77;1.38;;;18.30;57.60;;;;;;5018605;28;20036;-63
2021/11/18 03:21:43;;;;;;;2.58;1.20;;;18.30;57.60;;;;;;4989947;28;20030;-62
2021/11/18 03:24:08;;;;;;;1.75;1.20;;;18.20;57.60;;;;;;5006015;28;20674;-63
2021/11/18 03:26:34;;;;;;;2.35;1.55;;;18.30;57.60;;;;;;5017762;28;20663;-63
2021/11/18 03:28:59;;;;;;;1.65;1.20;;;18.30;57.60;;;;;;5020186;28;20639;-63
2021/11/18 03:31:25;;;;;;;2.08;1.30;;;18.30;57.50;;;;;;5016180;28;20025;-61
2021/11/18 03:33:54;;;;;;;2.17;1.15;;;18.30;57.40;;;;;;5011616;28;20270;-62
2021/11/18 03:36:19;;;;;;;1.55;1.20;;;18.30;57.30;;;;;;5011599;28;20026;-63
2021/11/18 03:38:45;;;;;;;1.85;1.23;;;18.30;57.30;;;;;;5010516;28;20040;-59
2021/11/18 03:41:11;;;;;;;2.10;1.50;;;18.30;57.30;;;;;;5014741;28;20088;-63
2021/11/18 03:43:39;;;;;;;1.52;1.00;;;18.30;57.30;;;;;;4991075;28;20034;-63
2021/11/18 03:46:06;;;;;;;1.73;1.13;;;18.20;57.20;;;;;;5011653;28;20096;-63
2021/11/18 03:48:33;;;;;;;1.30;1.10;;;18.20;57.30;;;;;;5002061;28;20057;-62
2021/11/18 03:50:59;;;;;;;1.40;1.20;;;18.20;57.30;;;;;;5002218;28;20033;-63
2021/11/18 03:53:25;;;;;;;2.38;1.50;;;18.20;57.30;;;;;;4989414;28;20037;-62
2021/11/18 03:55:50;;;;;;;3.25;1.38;;;18.20;57.30;;;;;;5015027;28;20041;-63
2021/11/18 03:58:16;;;;;;;2.28;1.52;;;18.20;57.30;;;;;;5022159;28;20041;-62
2021/11/18 04:00:41;;;;;;;1.60;1.50;;;18.20;57.20;;;;;;5017746;28;20511;-62
2021/11/18 04:03:08;;;;;;;1.35;1.15;;;18.20;57.20;;;;;;5017487;28;20049;-63
2021/11/18 04:05:34;;;;;;;1.33;0.90;;;18.20;57.20;;;;;;5021272;28;20033;-63
2021/11/18 04:07:59;;;;;;;1.48;1.08;;;18.20;57.00;;;;;;5023859;28;20033;-62
2021/11/18 04:10:26;;;;;;;1.40;1.30;;;18.10;57.00;;;;;;4982110;28;20162;-62
2021/11/18 04:12:52;;;;;;;1.95;1.23;;;18.20;57.00;;;;;;5020142;28;20042;-63
2021/11/18 04:15:19;;;;;;;1.98;1.38;;;18.10;57.00;;;;;;5032627;23;20124;-57
2021/11/18 04:17:44;;;;;;;1.70;1.38;;;18.10;57.00;;;;;;5006727;28;20124;-59
2021/11/18 04:20:10;;;;;;;1.60;1.30;;;18.10;57.00;;;;;;5017209;28;20738;-60
2021/11/18 04:22:36;;;;;;;1.98;1.52;;;18.10;57.10;;;;;;5030630;28;20038;-57
2021/11/18 04:25:04;;;;;;;1.50;1.15;;;18.10;57.10;;;;;;5010312;28;20028;-60
2021/11/18 04:27:29;;;;;;;3.17;1.30;;;18.10;57.10;;;;;;5016670;28;20025;-56
2021/11/18 04:29:55;;;;;;;1.65;1.08;;;18.00;57.10;;;;;;5023470;28;20301;-59
2021/11/18 04:32:22;;;;;;;1.60;1.35;;;18.00;57.10;;;;;;5039213;28;20179;-58
2021/11/18 04:34:48;;;;;;;1.10;0.90;;;18.00;57.20;;;;;;5025433;28;20683;-57
2021/11/18 04:37:14;;;;;;;1.50;1.10;;;18.00;57.20;;;;;;5024070;28;20030;-58
2021/11/18 04:39:40;;;;;;;1.38;1.00;;;17.90;57.30;;;;;;5009624;28;20033;-58
2021/11/18 04:42:06;;;;;;;2.22;1.30;;;17.90;57.30;;;;;;5036000;28;20025;-57
2021/11/18 04:44:32;;;;;;;1.98;1.35;;;17.90;57.30;;;;;;5014271;28;20104;-55
2021/11/18 04:46:59;;;;;;;2.50;1.27;;;17.90;57.30;;;;;;5024328;28;20102;-58
2021/11/18 04:49:24;;;;;;;1.40;0.90;;;17.90;57.30;;;;;;5027740;28;20105;-58
2021/11/18 04:51:50;;;;;;;1.25;1.00;;;17.90;57.30;;;;;;5019129;28;20134;-57
2021/11/18 04:54:15;;;;;;;1.45;1.05;;;17.90;57.40;;;;;;5035470;28;20025;-57
2021/11/18 04:56:41;;;;;;;1.42;1.10;;;17.90;57.40;;;;;;5029914;28;20061;-59
2021/11/18 04:59:06;;;;;;;1.40;0.88;;;17.90;57.40;;;;;;5031132;28;20029;-57
2021/11/18 05:01:34;;;;;;;2.15;1.50;;;17.90;57.40;;;;;;5013453;28;20029;-56
2021/11/18 05:04:00;;;;;;;1.40;1.30;;;17.90;57.30;;;;;;5026047;28;20406;-58
2021/11/18 05:06:25;;;;;;;2.45;1.05;;;18.00;57.20;;;;;;5014419;28;20041;-57
2021/11/18 05:08:51;;;;;;;1.13;0.95;;;18.00;57.00;;;;;;5022756;28;20103;-57
2021/11/18 05:11:16;;;;;;;1.25;1.10;;;18.10;56.90;;;;;;5027565;28;20101;-58
2021/11/18 05:13:42;;;;;;;1.30;1.20;;;18.20;56.90;;;;;;5041334;28;20041;-58
2021/11/18 05:16:11;;;;;;;2.83;1.13;;;18.20;56.80;;;;;;5032436;28;20037;-59
2021/11/18 05:18:36;;;;;;;1.15;1.00;;;18.20;56.90;;;;;;5013724;28;20039;-58
2021/11/18 05:21:02;;;;;;;1.45;1.10;;;18.20;56.90;;;;;;5026779;28;20116;-58
2021/11/18 05:23:28;;;;;;;1.15;1.05;;;18.20;56.90;;;;;;5031234;28;20120;-59
2021/11/18 05:25:54;;;;;;;1.67;0.93;;;18.30;57.00;;;;;;5008697;28;20029;-57
2021/11/18 05:28:20;;;;;;;1.40;1.00;;;18.30;57.00;;;;;;5014998;28;20514;-58
2021/11/18 05:30:45;;;;;;;1.20;1.02;;;18.30;57.00;;;;;;5012421;28;20045;-58
2021/11/18 05:33:13;;;;;;;1.40;1.00;;;18.30;57.00;;;;;;5038919;28;20114;-58
2021/11/18 05:35:38;;;;;;;2.03;0.95;;;18.30;57.00;;;;;;5029101;28;20029;-58
2021/11/18 05:38:04;;;;;;;1.45;1.00;;;18.30;57.00;;;;;;5016623;28;20086;-57
2021/11/18 05:40:30;;;;;;;1.90;1.13;;;18.30;57.00;;;;;;5006583;28;20482;-58
2021/11/18 05:42:56;;;;;;;2.10;1.00;;;18.30;57.00;;;;;;5035739;28;20127;-58
2021/11/18 05:45:24;;;;;;;3.72;1.50;;;18.30;57.00;;;;;;5040090;28;20108;-58
2021/11/18 05:47:50;;;;;;;3.45;1.65;;;18.30;57.10;;;;;;5040084;28;20494;-57
2021/11/18 05:50:15;;;;;;;2.80;1.75;;;18.30;57.10;;;;;;5030261;28;20038;-57
2021/11/18 05:52:41;;;;;;;4.70;2.05;;;18.30;57.20;;;;;;5020891;28;20032;-59
2021/11/18 05:55:07;;;;;;;4.32;2.05;;;18.30;57.80;;;;;;5012929;28;20060;-58
2021/11/18 05:57:32;;;;;;;3.05;2.10;;;18.40;57.20;;;;;;5005793;28;20109;-58
2021/11/18 05:59:58;;;;;;;3.00;2.38;;;18.30;57.10;;;;;;5029165;28;20108;-59
2021/11/18 06:02:24;;;;;;;5.00;2.70;;;18.30;57.10;;;;;;5039475;28;20033;-57
2021/11/18 06:04:49;;;;;;;4.07;3.10;;;18.30;57.10;;;;;;5032634;28;20538;-59
2021/11/18 06:07:14;;;;;;;5.70;3.20;;;18.30;57.10;;;;;;5031906;28;20789;-57
2021/11/18 06:09:40;;;;;;;6.88;3.47;;;18.40;57.10;;;;;;5033793;28;20094;-58
2021/11/18 06:12:06;;;;;;;4.63;2.63;;;18.30;56.90;;;;;;5034748;28;20033;-60
2021/11/18 06:14:32;;;;;;;3.03;2.60;;;18.30;56.80;;;;;;5013283;28;20697;-55
2021/11/18 06:16:57;;;;;;;6.53;2.58;;;18.30;56.80;;;;;;5023368;28;20037;-58
2021/11/18 06:19:23;;;;;;;3.88;2.95;;;18.30;56.70;;;;;;5024573;28;20037;-66
2021/11/18 06:21:52;;;;;;;9.13;5.20;;;18.30;57.00;;;;;;5027710;28;20025;-58
2021/11/18 06:24:18;;;;;;;6.70;4.75;;;18.30;57.40;;;;;;5007893;28;20040;-57
2021/11/18 06:26:44;;;;;;;7.75;4.82;;;18.30;57.60;;;;;;5007080;28;20026;-57
2021/11/18 06:29:10;;;;;;;6.25;4.50;;;18.20;57.60;;;;;;5042355;28;20517;-58
2021/11/18 06:31:35;;;;;;;13.57;5.22;;;18.20;57.70;;;;;;5033338;28;20048;-58
2021/11/18 06:34:01;;;;;;;11.30;4.57;;;18.20;57.70;;;;;;5025985;28;20025;-58
2021/11/18 06:36:26;;;;;;;8.32;4.22;;;18.30;57.70;;;;;;5034805;28;20044;-58
2021/11/18 06:38:52;;;;;;;8.50;4.63;;;18.30;57.50;;;;;;5041787;28;20053;-56
2021/11/18 06:41:19;;;;;;;6.68;4.05;;;18.30;57.20;;;;;;5030246;28;20439;-54
2021/11/18 06:43:44;;;;;;;7.70;4.13;;;18.20;57.10;;;;;;5001955;28;20034;-56
2021/11/18 06:46:10;;;;;;;9.77;4.22;;;18.20;57.10;;;;;;5009753;28;20036;-58
2021/11/18 06:48:36;;;;;;;10.82;5.85;;;18.20;57.00;;;;;;5021677;28;20044;-58
2021/11/18 06:51:07;;;;;;;17.85;10.23;;;18.10;56.60;;;;;;5031912;28;20514;-57
2021/11/18 06:53:33;;;;;;;19.45;10.38;;;18.20;56.40;;;;;;5022550;28;20490;-58
2021/11/18 06:55:58;;;;;;;18.58;10.65;;;18.10;56.20;;;;;;5017618;28;20053;-56
2021/11/18 06:58:24;;;;;;;24.25;10.35;;;18.10;55.90;;;;;;5013484;28;20037;-59
2021/11/18 07:00:50;;;;;;;21.80;9.32;;;18.10;55.70;;;;;;5031065;28;20033;-57
2021/11/18 07:03:15;;;;;;;16.40;8.90;;;18.10;55.90;;;;;;5032899;28;20029;-56
2021/11/18 07:05:41;;;;;;;17.60;8.45;;;18.10;55.90;;;;;;4990930;28;20083;-56
2021/11/18 07:08:07;;;;;;;13.25;6.97;;;18.10;55.80;;;;;;5022719;28;20056;-59
2021/11/18 07:10:33;;;;;;;16.20;8.02;;;18.00;55.50;;;;;;5004445;28;20483;-58
2021/11/18 07:12:58;;;;;;;13.80;6.38;;;18.00;55.40;;;;;;5004696;28;20034;-55
2021/11/18 07:15:26;;;;;;;11.73;5.28;;;17.90;55.10;;;;;;5004105;28;20648;-56
2021/11/18 07:17:52;;;;;;;13.48;6.00;;;18.00;54.60;;;;;;5005422;28;20037;-57
2021/11/18 07:20:18;;;;;;;11.77;5.13;;;17.90;54.20;;;;;;5021381;28;20398;-57
2021/11/18 07:22:43;;;;;;;22.45;8.77;;;17.90;53.80;;;;;;5022245;28;20075;-59
2021/11/18 07:25:12;;;;;;;29.30;8.75;;;17.90;54.10;;;;;;5022700;28;20025;-59
2021/11/18 07:27:37;;;;;;;27.88;7.55;;;18.00;54.40;;;;;;5022276;28;20025;-59
2021/11/18 07:30:04;;;;;;;25.20;7.35;;;18.00;54.10;;;;;;5003910;28;20736;-58
2021/11/18 07:32:30;;;;;;;21.98;6.78;;;17.90;53.90;;;;;;5005778;28;20026;-59
2021/11/18 07:34:55;;;;;;;15.35;5.57;;;17.90;53.50;;;;;;4998454;28;20093;-58
2021/11/18 07:37:21;;;;;;;21.02;4.95;;;17.90;53.30;;;;;;5002911;28;20491;-57
2021/11/18 07:39:46;;;;;;;10.82;4.70;;;17.90;53.30;;;;;;5002619;28;20030;-56
2021/11/18 07:42:12;;;;;;;18.85;4.68;;;17.90;53.30;;;;;;5002229;28;20041;-56
2021/11/18 07:44:38;;;;;;;16.10;4.47;;;17.90;53.40;;;;;;5002524;28;20056;-57
2021/11/18 07:47:04;;;;;;;14.65;4.68;;;17.90;53.40;;;;;;5002156;28;20041;-56
2021/11/18 07:49:29;;;;;;;13.00;4.47;;;17.80;53.40;;;;;;5000646;28;20603;-57
2021/11/18 07:51:55;;;;;;;10.50;3.85;;;17.90;53.50;;;;;;5001931;28;20022;-58
2021/11/18 07:54:24;;;;;;;11.20;4.50;;;17.90;53.70;;;;;;5002264;28;20026;-59
2021/11/18 07:56:50;;;;;;;9.85;3.97;;;17.90;53.70;;;;;;5000763;28;20042;-59
2021/11/18 07:59:16;;;;;;;12.07;4.05;;;18.00;53.60;;;;;;4974269;28;20058;-58
2021/11/18 08:01:42;;;;;;;12.30;4.45;;;18.00;53.70;;;;;;4964600;28;20022;-58
2021/11/18 08:04:08;;;;;;;15.05;3.88;;;18.10;53.90;;;;;;4981034;28;20518;-56
2021/11/18 08:06:34;;;;;;;8.02;4.18;;;18.10;54.00;;;;;;4967970;28;20374;-59
2021/11/18 08:08:59;;;;;;;13.50;4.72;;;18.10;54.10;;;;;;4972623;28;20114;-57
2021/11/18 08:11:32;;;;;;;11.93;4.25;;;18.10;54.20;;;;;;4991102;28;20491;-56
2021/11/18 08:13:57;;;;;;;12.18;4.68;;;18.10;54.30;;;;;;4974931;28;20038;-56
2021/11/18 08:16:23;;;;;;;12.27;4.43;;;18.10;54.40;;;;;;4992516;28;20045;-59
2021/11/18 08:18:49;;;;;;;10.55;4.60;;;18.20;54.50;;;;;;4965677;28;20035;-57
2021/11/18 08:21:15;;;;;;;10.07;3.88;;;18.20;54.50;;;;;;4990361;28;20030;-59
2021/11/18 08:23:40;;;;;;;15.52;4.68;;;18.20;54.60;;;;;;4972935;28;20042;-57
2021/11/18 08:26:09;;;;;;;11.90;4.30;;;18.20;54.70;;;;;;4972516;28;20045;-57
2021/11/18 08:28:34;;;;;;;11.13;3.90;;;18.20;54.80;;;;;;4971772;28;20037;-58
2021/11/18 08:31:01;;;;;;;9.23;4.38;;;18.20;54.90;;;;;;4982173;28;20038;-56
2021/11/18 08:33:27;;;;;;;11.77;3.83;;;18.20;54.90;;;;;;4983447;28;20026;-65
2021/11/18 08:35:53;;;;;;;11.18;4.22;;;18.20;55.00;;;;;;4986290;28;20045;-59
2021/11/18 08:38:18;;;;;;;11.02;3.83;;;18.20;55.00;;;;;;4988632;28;20042;-58
2021/11/18 08:40:48;;;;;;;10.98;4.18;;;18.20;55.00;;;;;;4963783;28;20038;-58
2021/11/18 08:43:14;;;;;;;10.80;4.00;;;18.20;55.10;;;;;;4972244;28;20511;-55
2021/11/18 08:45:39;;;;;;;13.60;3.92;;;18.20;55.10;;;;;;4963999;28;20031;-59
2021/11/18 08:48:06;;;;;;;10.43;3.72;;;18.20;55.10;;;;;;4992964;28;20030;-57
2021/11/18 08:50:31;;;;;;;10.75;3.85;;;18.20;55.20;;;;;;4991109;28;20551;-57
2021/11/18 08:52:57;;;;;;;9.68;3.50;;;18.20;55.20;;;;;;4992518;28;20175;-60
2021/11/18 08:55:25;;;;;;;8.13;3.65;;;18.20;55.30;;;;;;4986115;28;20515;-53
2021/11/18 08:57:51;;;;;;;7.97;3.20;;;18.20;55.30;;;;;;4981295;28;20034;-56
2021/11/18 09:00:21;;;;;;;9.45;4.00;;;18.20;55.30;;;;;;4970963;28;20032;-56
2021/11/18 09:02:46;;;;;;;6.18;2.55;;;18.20;55.30;;;;;;4990611;28;20034;-56
2021/11/18 09:05:12;;;;;;;6.53;3.28;;;18.20;55.30;;;;;;4987129;28;20053;-57
2021/11/18 09:07:38;;;;;;;6.10;3.38;;;18.20;55.40;;;;;;4987516;28;20022;-58
2021/11/18 09:10:04;;;;;;;6.97;3.03;;;18.20;55.30;;;;;;4981933;28;20395;-59
2021/11/18 09:12:30;;;;;;;7.03;3.65;;;18.20;55.40;;;;;;4979126;28;20030;-58
2021/11/18 09:14:55;;;;;;;5.78;3.13;;;18.20;55.40;;;;;;4995161;28;20034;-57
2021/11/18 09:17:21;;;;;;;8.63;3.40;;;18.20;55.40;;;;;;4998000;28;20116;-60
2021/11/18 09:19:47;;;;;;;8.27;3.58;;;18.20;55.40;;;;;;4973677;28;20543;-60
2021/11/18 09:22:13;;;;;;;7.32;2.97;;;18.20;55.40;;;;;;4987353;28;20034;-58
2021/11/18 09:24:45;;;;;;;5.32;2.63;;;18.20;55.50;;;;;;4984923;28;20037;-58
2021/11/18 09:27:28;;;;;;;5.97;3.63;;;18.20;55.40;;;;;;4984795;28;20377;-58
2021/11/18 09:29:54;;;;;;;7.80;3.20;;;18.20;55.40;;;;;;4992639;28;20044;-57
2021/11/18 09:32:20;;;;;;;9.07;2.80;;;18.20;55.40;;;;;;4992169;28;20030;-59
2021/11/18 09:34:45;;;;;;;6.22;3.35;;;18.20;55.40;;;;;;5000722;28;20044;-56
2021/11/18 09:37:11;;;;;;;6.75;2.78;;;18.20;55.40;;;;;;5001330;28;20026;-57
2021/11/18 09:39:37;;;;;;;5.30;2.70;;;18.20;55.50;;;;;;4975124;28;20514;-57
2021/11/18 09:42:07;;;;;;;5.80;3.22;;;18.20;55.60;;;;;;4984814;28;20042;-57
2021/11/18 09:44:48;;;;;;;8.68;3.17;;;18.20;55.70;;;;;;5001567;28;20187;-58
2021/11/18 09:47:19;;;;;;;6.75;2.90;;;18.20;55.80;;;;;;4986468;28;20041;-57
2021/11/18 09:50:12;;;;;;;6.50;2.65;;;18.20;55.70;;;;;;5001651;28;20509;-60
2021/11/18 09:52:52;;;;;;;4.70;2.55;;;18.10;55.60;;;;;;5018850;28;20057;-57
2021/11/18 09:55:43;;;;;;;5.95;2.60;;;18.10;55.60;;;;;;4989389;28;20832;-56
2021/11/18 09:58:48;;;;;;;5.32;2.75;;;18.10;55.60;;;;;;4981729;28;20048;-59
2021/11/18 10:01:25;;;;;;;4.43;2.55;;;18.10;55.70;;;;;;4970414;28;20278;-57
2021/11/18 10:04:04;;;;;;;5.43;2.78;;;18.10;55.70;;;;;;5000091;28;20042;-56
2021/11/18 10:06:34;;;;;;;6.80;2.95;;;18.10;55.80;;;;;;5021390;28;20036;-56
2021/11/18 10:09:39;;;;;;;3.72;2.63;;;18.10;55.70;;;;;;4983488;28;20172;-57
2021/11/18 10:12:25;;;;;;;6.32;2.17;;;18.00;55.70;;;;;;4996803;28;20060;-56
2021/11/18 10:14:58;;;;;;;5.72;2.55;;;18.10;55.70;;;;;;4989605;28;20058;-59
2021/11/18 10:17:30;;;;;;;4.63;2.55;;;18.00;55.70;;;;;;5014500;23;20046;-61
2021/11/18 10:20:02;;;;;;;4.05;2.50;;;18.10;55.70;;;;;;5002269;28;20026;-61
2021/11/18 10:22:30;;;;;;;5.32;2.80;;;18.00;55.60;;;;;;4996711;28;20045;-62
2021/11/18 10:24:56;;;;;;;3.80;2.53;;;18.00;55.60;;;;;;5004324;28;20069;-62
2021/11/18 10:27:29;;;;;;;5.68;2.78;;;18.10;55.70;;;;;;5005719;28;20104;-61
2021/11/18 10:29:57;;;;;;;5.82;2.38;;;18.00;55.70;;;;;;5007431;28;20034;-61
2021/11/18 10:32:23;;;;;;;4.65;2.40;;;18.00;55.70;;;;;;5008287;28;20048;-62
2021/11/18 10:34:56;;;;;;;4.45;2.38;;;18.00;55.70;;;;;;5008176;28;20014;-62
2021/11/18 10:37:23;;;;;;;5.43;2.47;;;18.00;55.70;;;;;;5007599;28;20018;-62
2021/11/18 10:39:53;;;;;;;4.82;2.58;;;18.00;55.70;;;;;;5006175;28;20025;-61
2021/11/18 10:42:19;;;;;;;4.85;2.17;;;18.00;55.80;;;;;;5007691;28;20575;-62
2021/11/18 10:44:58;;;;;;;3.17;2.10;;;18.00;55.80;;;;;;5007658;28;20025;-61
2021/11/18 10:47:34;;;;;;;3.78;2.20;;;18.00;55.80;;;;;;5008098;28;20508;-58
2021/11/18 10:50:18;;;;;;;3.80;2.20;;;18.00;55.80;;;;;;5007428;28;20035;-62
2021/11/18 10:52:46;;;;;;;3.65;2.42;;;18.00;55.80;;;;;;5000840;28;20030;-62
2021/11/18 10:55:19;;;;;;;4.70;2.30;;;18.00;55.80;;;;;;5007401;28;20044;-62
2021/11/18 10:58:23;;;;;;;2.85;2.20;;;18.00;55.90;;;;;;5007294;28;20101;-62
2021/11/18 11:00:53;;;;;;;4.45;2.13;;;18.00;55.90;;;;;;5003974;28;20025;-62
2021/11/18 11:03:26;;;;;;;3.60;2.33;;;18.00;55.90;;;;;;5007016;28;20176;-61
2021/11/18 11:06:20;;;;;;;3.35;2.15;;;18.00;56.00;;;;;;5006790;28;20026;-61
2021/11/18 11:08:48;;;;;;;4.30;2.20;;;18.00;56.60;;;;;;5006763;28;20018;-61
2021/11/18 11:11:26;;;;;;;3.17;2.00;;;18.00;55.90;;;;;;5007185;28;20018;-61
2021/11/18 11:14:01;;;;;;;4.40;2.13;;;18.00;56.00;;;;;;5007362;28;20400;-61
2021/11/18 11:16:49;;;;;;;4.13;2.35;;;18.00;56.00;;;;;;5003498;28;20045;-60
2021/11/18 11:19:29;;;;;;;4.63;2.58;;;18.00;56.00;;;;;;5005437;28;20507;-62
2021/11/18 11:22:09;;;;;;;2.85;1.90;;;18.00;56.00;;;;;;5005720;28;20022;-60
2021/11/18 11:24:53;;;;;;;2.72;1.90;;;18.00;56.00;;;;;;5005518;28;20026;-61
2021/11/18 11:27:39;;;;;;;2.47;2.10;;;18.00;56.00;;;;;;4985824;28;20026;-61
2021/11/18 11:30:39;;;;;;;2.92;1.90;;;18.00;56.00;;;;;;4990883;28;20026;-62
2021/11/18 11:33:17;;;;;;;4.20;2.45;;;18.00;56.00;;;;;;5006770;28;20500;-61
2021/11/18 11:36:07;;;;;;;3.03;2.00;;;18.00;56.00;;;;;;5005675;28;20077;-61
2021/11/18 11:38:51;;;;;;;3.30;2.30;;;18.00;56.00;;;;;;5004442;28;20037;-61
2021/11/18 11:41:38;;;;;;;5.38;2.20;;;18.00;56.00;;;;;;5005613;28;20054;-61
2021/11/18 11:44:12;;;;;;;2.92;2.20;;;18.00;56.10;;;;;;5006650;28;20022;-62
2021/11/18 11:46:53;;;;;;;3.95;2.38;;;18.10;56.10;;;;;;5005502;28;20631;-63
2021/11/18 11:49:35;;;;;;;4.18;2.00;;;18.00;56.10;;;;;;5005377;28;20026;-61
2021/11/18 11:52:22;;;;;;;4.32;2.40;;;18.00;56.10;;;;;;5006891;28;20415;-61
2021/11/18 11:55:00;;;;;;;4.22;2.35;;;18.00;56.70;;;;;;4998769;28;20456;-60
2021/11/18 11:57:50;;;;;;;4.68;2.35;;;18.00;56.10;;;;;;5005230;28;20037;-61
2021/11/18 12:00:17;;;;;;;2.42;1.77;;;18.00;56.10;;;;;;5003811;28;20050;-61
2021/11/18 12:03:15;;;;;;;2.60;2.00;;;18.00;56.10;;;;;;5007585;28;20036;-61
2021/11/18 12:05:52;;;;;;;4.10;2.10;;;18.00;56.10;;;;;;5005736;28;20388;-61
2021/11/18 12:09:01;;;;;;;2.88;1.88;;;18.00;56.30;;;;;;5006650;28;20471;-62
2021/11/18 12:11:53;;;;;;;4.13;2.30;;;18.00;56.10;;;;;;4988824;28;20018;-61
2021/11/18 12:14:39;;;;;;;3.95;2.10;;;18.00;56.10;;;;;;5001369;28;20029;-62
2021/11/18 12:17:29;;;;;;;3.38;2.00;;;18.00;56.20;;;;;;5006047;28;20030;-62
2021/11/18 12:20:09;;;;;;;2.20;1.73;;;18.00;56.20;;;;;;5002470;28;20030;-61
2021/11/18 12:22:55;;;;;;;2.55;2.35;;;18.00;56.10;;;;;;5004592;28;20034;-61
2021/11/18 12:25:29;;;;;;;3.72;1.83;;;18.00;56.10;;;;;;5005970;28;20520;-62
2021/11/18 12:28:11;;;;;;;3.55;2.08;;;18.00;56.20;;;;;;5005509;28;20652;-61
2021/11/18 12:31:05;;;;;;;4.05;2.45;;;18.00;56.20;;;;;;5005101;28;20022;-61
2021/11/18 12:33:44;;;;;;;3.67;1.92;;;18.00;56.20;;;;;;5004640;28;20030;-61
2021/11/18 12:36:40;;;;;;;3.15;2.13;;;18.00;56.20;;;;;;5001504;28;20026;-61
2021/11/18 12:39:17;;;;;;;3.13;2.08;;;18.00;56.20;;;;;;5003875;28;20033;-61
2021/11/18 12:42:10;;;;;;;3.22;2.20;;;18.00;56.20;;;;;;5004306;28;20595;-61
2021/11/18 12:44:50;;;;;;;3.67;2.35;;;18.00;56.20;;;;;;5002929;28;20026;-61
2021/11/18 12:47:46;;;;;;;2.95;1.90;;;18.00;56.20;;;;;;5004206;28;20033;-61
2021/11/18 12:50:33;;;;;;;3.35;2.10;;;18.00;56.20;;;;;;5004461;28;20076;-61
2021/11/18 12:53:11;;;;;;;4.18;2.50;;;18.00;56.30;;;;;;5003248;28;20029;-62
2021/11/18 12:56:03;;;;;;;3.10;1.90;;;18.00;56.20;;;;;;5004704;28;20018;-61
2021/11/18 12:58:53;;;;;;;2.83;1.73;;;18.00;56.20;;;;;;5005244;28;20022;-62